Country
Station

 

Weather  for  Johan A. Pengel  -  Suriname    Suriname

  
30 °C (86 °F)
    
 
 

Current METAR for Johan A. Pengel is :

SMJP 171600Z 04008KT 350V090 9999 FEW020CB SCT025 30/23 Q1014 NOSIG

 

This is a report for Johan A. Pengel - Suriname.
 
The report was made 53 hours and 15 minutes ago, at 16:00 UTC .
The wind was blowing at a speed of 4.1 meters per second (9.2 miles per hour) from northeast (040°), varying between north (350°) and east (090°).
 
The temperature was 30 °C (86 °F), with a dew-point at 23 °C (73 °F).
The temperature felt like 34 °C (93 °F).
 
The atmospheric pressure was 1014 hPa (29.94 inHg).
The relative humidity was 66.2%.
 
There were a few cumulonimbus clouds at a height of 610 meters (2000 feet) and scattered clouds at a height of 762 meters (2500 feet).
 
The overall visibility was greater than 10 kilometers (6.2 miles).
 

 
 
 
 

Country :   A   B   C   D   E   F   G   H   I   J   K   L   M   N   O   P   Q   R   S   T   U   V   W   Y   Z

 

Site Info  |  Disclaimer  |  Credits  |  Privacy
Contact us  |  Add to favorites
© 2013-2018 METARs - All rights reserved